< < Back
Terminal Aerodrome Forecast


Current Version              Previous Versions:   1  2  3  4  5  6  7  8  9  

Terminal Aerodrome Forecast

345
FTUS42 KGSP 152300
TAFHKY
TAF
KHKY 152320Z 1600/1624 32010G20KT P6SM FEW030
     FM160400 35010KT P6SM SKC
     FM161500 05009KT P6SM SKC=

Latest METAR

512
SAUS70 KWBC 162200 RRJ
MTRHKY
METAR KHKY 162153Z 10003KT 10SM CLR 13/M07 A3031 RMK AO2 SLP259
T01281067


USA.gov is the U.S. government's official web portal to all federal, state and local government web resources and services.